Time;durP1;ratioP1;P1;durP2;ratioP2;P2;SDS_P1;SDS_P2;PMS_P1;PMS_P2;Temp;Humidity;BMP_temperature;BMP_pressure;BME280_temperature;BME280_humidity;BME280_pressure;Samples;Min_cycle;Max_cycle;Signal;HPM_P1;HPM_P2
2022/09/13 00:01:30;;;;;;;17.65;12.48;;;22.00;99.90;;;;;;5092095;28;20205;-48
2022/09/13 00:03:56;;;;;;;17.50;11.70;;;22.00;99.90;;;;;;5093440;28;20180;-49
2022/09/13 00:06:22;;;;;;;16.90;11.82;;;22.00;99.90;;;;;;5087435;28;20193;-55
2022/09/13 00:08:48;;;;;;;20.30;11.82;;;21.90;99.90;;;;;;5093102;28;20196;-54
2022/09/13 00:11:21;;;;;;;18.38;12.85;;;22.00;99.90;;;;;;5087927;28;20697;-49
2022/09/13 00:13:46;;;;;;;21.48;11.68;;;22.00;99.90;;;;;;5117985;28;20248;-52
2022/09/13 00:16:17;;;;;;;14.55;10.43;;;22.00;99.90;;;;;;5102850;28;20249;-51
2022/09/13 00:18:42;;;;;;;15.27;10.93;;;22.00;99.90;;;;;;5094872;28;20170;-52
2022/09/13 00:21:11;;;;;;;19.15;9.63;;;22.00;99.90;;;;;;5096964;28;20665;-53
2022/09/13 00:23:37;;;;;;;12.00;9.00;;;21.90;99.90;;;;;;5079565;28;20178;-54
2022/09/13 00:26:09;;;;;;;13.25;8.75;;;21.90;99.90;;;;;;5095814;28;20163;-53
2022/09/13 00:28:35;;;;;;;13.73;8.55;;;21.90;99.90;;;;;;5096395;28;20166;-52
2022/09/13 00:31:04;;;;;;;12.27;8.85;;;21.90;99.90;;;;;;5097209;28;20590;-51
2022/09/13 00:33:29;;;;;;;13.73;8.57;;;21.90;99.90;;;;;;5096303;28;20281;-50
2022/09/13 00:35:56;;;;;;;14.02;8.77;;;21.90;99.90;;;;;;5076125;28;20321;-51
2022/09/13 00:38:22;;;;;;;12.38;8.30;;;21.80;99.90;;;;;;5091563;28;20224;-51
2022/09/13 00:40:48;;;;;;;16.45;8.38;;;21.80;99.90;;;;;;5078562;28;20230;-50
2022/09/13 00:43:19;;;;;;;15.60;8.70;;;21.80;99.90;;;;;;5078729;28;20273;-51
2022/09/13 00:45:47;;;;;;;11.65;8.10;;;21.80;99.90;;;;;;5077561;28;20174;-51
2022/09/13 00:48:21;;;;;;;14.65;7.88;;;21.80;99.90;;;;;;5090962;28;20185;-51
2022/09/13 00:50:53;;;;;;;11.13;8.10;;;21.80;99.90;;;;;;5097451;28;20162;-51
2022/09/13 00:53:30;;;;;;;12.43;8.25;;;21.80;99.90;;;;;;5096825;28;20158;-49
2022/09/13 00:56:00;;;;;;;15.07;7.97;;;21.70;99.90;;;;;;5096340;28;20169;-53
2022/09/13 00:58:49;;;;;;;12.93;7.93;;;21.70;99.90;;;;;;5089031;28;20259;-48
2022/09/13 01:01:17;;;;;;;14.55;8.05;;;21.70;99.90;;;;;;5077289;28;20182;-51
2022/09/13 01:03:46;;;;;;;11.55;7.90;;;21.70;99.90;;;;;;5096554;28;20173;-51
2022/09/13 01:06:17;;;;;;;10.98;8.13;;;21.70;99.90;;;;;;5078283;28;20181;-47
2022/09/13 01:08:48;;;;;;;13.68;8.10;;;21.60;99.90;;;;;;5095272;28;20173;-52
2022/09/13 01:11:26;;;;;;;12.65;7.88;;;21.60;99.90;;;;;;5105074;28;20191;-49
2022/09/13 01:13:54;;;;;;;16.50;8.02;;;21.60;99.90;;;;;;5116622;28;20157;-45
2022/09/13 01:16:20;;;;;;;13.02;8.65;;;21.60;99.90;;;;;;5098289;28;20173;-52
2022/09/13 01:18:45;;;;;;;11.02;8.23;;;21.60;99.90;;;;;;5098153;28;20212;-48
2022/09/13 01:21:56;;;;;;;13.82;8.30;;;21.60;99.90;;;;;;5093188;28;20178;-52
2022/09/13 01:24:43;;;;;;;14.40;7.90;;;21.60;99.90;;;;;;5062650;28;20576;-52
2022/09/13 01:27:44;;;;;;;13.43;8.80;;;21.60;99.90;;;;;;5077213;28;20192;-47
2022/09/13 01:30:51;;;;;;;15.85;8.55;;;21.60;99.90;;;;;;5095661;28;20178;-49
2022/09/13 01:33:43;;;;;;;15.63;8.23;;;21.70;99.90;;;;;;5076768;28;20190;-51
2022/09/13 01:36:32;;;;;;;18.42;8.82;;;21.60;99.90;;;;;;5057006;28;20225;-47
2022/09/13 01:39:29;;;;;;;12.25;8.13;;;21.50;99.90;;;;;;5093960;28;20189;-49
2022/09/13 01:42:17;;;;;;;12.20;8.68;;;21.50;99.90;;;;;;5081993;28;20221;-52
2022/09/13 01:44:58;;;;;;;12.48;8.35;;;21.40;99.90;;;;;;5076218;28;20223;-48
2022/09/13 01:47:32;;;;;;;12.82;8.82;;;21.40;99.90;;;;;;5077571;28;20680;-51
2022/09/13 01:50:27;;;;;;;13.43;9.15;;;21.40;99.90;;;;;;5074318;28;20188;-51
2022/09/13 01:52:58;;;;;;;15.23;8.60;;;21.30;99.90;;;;;;5089635;28;20202;-50
2022/09/13 01:55:38;;;;;;;14.18;8.48;;;21.30;99.90;;;;;;5095157;28;20178;-50
2022/09/13 01:58:15;;;;;;;12.98;8.38;;;21.30;99.90;;;;;;5093865;28;20196;-49
2022/09/13 02:01:02;;;;;;;11.77;8.45;;;21.30;99.90;;;;;;5089380;28;20177;-48
2022/09/13 02:03:54;;;;;;;15.70;8.65;;;21.30;99.90;;;;;;5092249;28;20177;-45
2022/09/13 02:06:32;;;;;;;13.88;8.35;;;21.20;99.90;;;;;;5095233;28;20473;-46
2022/09/13 02:09:12;;;;;;;9.60;8.10;;;21.30;99.90;;;;;;5094712;28;20174;-47
2022/09/13 02:11:41;;;;;;;14.85;8.35;;;21.30;99.90;;;;;;5070793;28;21103;-47
2022/09/13 02:14:13;;;;;;;12.70;8.30;;;21.30;99.90;;;;;;5077276;28;20525;-50
2022/09/13 02:16:49;;;;;;;13.48;8.73;;;21.30;99.90;;;;;;5077248;28;20204;-51
2022/09/13 02:19:32;;;;;;;9.23;7.82;;;21.30;99.90;;;;;;5094928;28;20165;-50
2022/09/13 02:22:00;;;;;;;10.27;7.93;;;21.30;99.90;;;;;;5087919;28;20180;-50
2022/09/13 02:24:35;;;;;;;10.95;8.07;;;21.20;99.90;;;;;;5093805;28;20324;-48
2022/09/13 02:27:08;;;;;;;14.40;8.82;;;21.20;99.90;;;;;;5094402;28;20169;-52
2022/09/13 02:29:38;;;;;;;14.30;8.18;;;21.20;99.90;;;;;;5076163;28;20170;-48
2022/09/13 02:32:21;;;;;;;9.82;7.53;;;21.20;99.90;;;;;;5090610;28;20626;-49
2022/09/13 02:34:53;;;;;;;13.93;8.35;;;21.10;99.90;;;;;;5091530;28;20548;-48
2022/09/13 02:37:19;;;;;;;15.45;8.32;;;21.20;99.90;;;;;;5076530;28;20232;-48
2022/09/13 02:39:58;;;;;;;14.98;8.57;;;21.10;99.90;;;;;;5094176;28;20192;-51
2022/09/13 02:42:51;;;;;;;13.52;7.88;;;21.10;99.90;;;;;;5091727;28;20182;-50
2022/09/13 02:45:20;;;;;;;11.35;7.65;;;21.10;99.90;;;;;;5091986;28;20189;-50
2022/09/13 02:47:58;;;;;;;10.32;7.90;;;21.10;99.90;;;;;;5093746;28;20182;-53
2022/09/13 02:51:00;;;;;;;11.10;7.30;;;21.00;99.90;;;;;;5075541;28;20251;-50
2022/09/13 02:53:49;;;;;;;11.68;7.82;;;21.00;99.90;;;;;;5089611;28;20667;-48
2022/09/13 02:56:31;;;;;;;12.77;7.40;;;21.00;99.90;;;;;;5094714;28;20253;-53
2022/09/13 02:59:02;;;;;;;11.48;6.82;;;21.00;99.90;;;;;;5093809;28;20201;-48
2022/09/13 03:01:28;;;;;;;10.13;6.65;;;21.00;99.90;;;;;;5075476;28;20192;-49
2022/09/13 03:03:53;;;;;;;10.70;6.80;;;20.90;99.90;;;;;;5088507;28;20681;-51
2022/09/13 03:06:27;;;;;;;10.05;6.75;;;20.90;99.90;;;;;;5092335;28;20270;-49
2022/09/13 03:08:57;;;;;;;9.55;6.32;;;20.90;99.90;;;;;;5075905;28;20162;-47
2022/09/13 03:11:56;;;;;;;10.20;6.13;;;20.90;99.90;;;;;;5103907;28;20537;-48
2022/09/13 03:14:50;;;;;;;9.65;5.93;;;20.90;99.90;;;;;;5063142;28;20181;-50
2022/09/13 03:17:36;;;;;;;10.07;5.93;;;20.90;99.90;;;;;;5092662;28;20361;-49
2022/09/13 03:20:20;;;;;;;13.95;6.03;;;20.90;99.90;;;;;;5094262;28;20610;-49
2022/09/13 03:23:07;;;;;;;12.82;6.30;;;20.90;99.90;;;;;;5075822;28;20173;-47
2022/09/13 03:25:50;;;;;;;9.02;6.15;;;20.90;99.90;;;;;;5087090;28;20198;-50
2022/09/13 03:28:31;;;;;;;9.63;6.20;;;20.90;99.90;;;;;;5093091;28;20202;-50
2022/09/13 03:31:18;;;;;;;10.15;6.47;;;20.90;99.90;;;;;;5093991;28;20208;-51
2022/09/13 03:34:10;;;;;;;9.82;6.22;;;20.90;99.90;;;;;;5093992;28;20551;-50
2022/09/13 03:36:44;;;;;;;13.20;6.55;;;20.80;99.90;;;;;;5046993;28;20217;-49
2022/09/13 03:39:24;;;;;;;12.55;6.20;;;20.80;99.90;;;;;;5093128;28;20169;-52
2022/09/13 03:41:55;;;;;;;9.98;6.00;;;20.80;99.90;;;;;;5093901;28;20186;-48
2022/09/13 03:44:24;;;;;;;10.38;5.95;;;20.80;99.90;;;;;;5092914;28;20241;-54
2022/09/13 03:46:55;;;;;;;10.48;6.15;;;20.70;99.90;;;;;;5085345;28;20166;-50
2022/09/13 03:49:23;;;;;;;13.13;6.38;;;20.70;99.90;;;;;;5073472;28;20165;-52
2022/09/13 03:51:50;;;;;;;13.00;6.22;;;20.80;99.90;;;;;;5091113;28;20555;-50
2022/09/13 03:54:26;;;;;;;11.57;6.15;;;20.80;99.90;;;;;;5093695;28;20273;-51
2022/09/13 03:57:13;;;;;;;9.30;5.20;;;20.80;99.90;;;;;;5087594;28;20204;-52
2022/09/13 03:59:59;;;;;;;9.30;5.90;;;20.70;99.90;;;;;;5093494;28;20182;-51
2022/09/13 04:02:25;;;;;;;9.30;5.70;;;20.70;99.90;;;;;;5092969;28;20173;-48
2022/09/13 04:04:51;;;;;;;12.15;6.18;;;20.70;99.90;;;;;;5094025;28;20189;-49
2022/09/13 04:07:19;;;;;;;8.15;6.10;;;20.70;99.90;;;;;;5070764;28;20188;-52
2022/09/13 04:09:45;;;;;;;8.43;6.30;;;20.70;99.90;;;;;;5079876;28;20210;-47
2022/09/13 04:12:13;;;;;;;8.07;6.22;;;20.70;99.90;;;;;;5084593;28;20637;-56
2022/09/13 04:14:39;;;;;;;11.10;6.47;;;20.80;99.90;;;;;;5083902;28;20207;-52
2022/09/13 04:17:06;;;;;;;10.85;5.85;;;20.80;99.90;;;;;;5078055;28;20284;-47
2022/09/13 04:19:32;;;;;;;11.07;5.72;;;20.80;99.90;;;;;;5093244;28;20178;-53
2022/09/13 04:21:58;;;;;;;9.93;6.18;;;20.80;99.90;;;;;;5092604;28;20189;-50
2022/09/13 04:24:26;;;;;;;14.65;6.28;;;20.80;99.90;;;;;;5057221;28;20223;-48
2022/09/13 04:26:53;;;;;;;12.43;6.88;;;20.80;99.90;;;;;;5092538;28;20269;-51
2022/09/13 04:29:21;;;;;;;11.07;6.40;;;20.80;99.90;;;;;;5092559;28;20664;-48
2022/09/13 04:31:47;;;;;;;15.48;6.80;;;20.80;99.90;;;;;;5093194;28;20213;-51
2022/09/13 04:34:14;;;;;;;10.23;6.15;;;20.80;99.90;;;;;;5073633;28;20178;-53
2022/09/13 04:36:40;;;;;;;8.93;5.60;;;20.80;99.90;;;;;;5086766;28;20224;-48
2022/09/13 04:39:06;;;;;;;11.20;6.43;;;20.80;99.90;;;;;;5092517;28;20315;-51
2022/09/13 04:41:33;;;;;;;8.75;5.78;;;20.80;99.90;;;;;;5092604;28;20689;-52
2022/09/13 04:44:02;;;;;;;9.77;5.85;;;20.80;99.90;;;;;;5077619;28;20219;-54
2022/09/13 04:46:28;;;;;;;8.55;5.95;;;20.80;99.90;;;;;;5081473;28;20178;-50
2022/09/13 04:48:54;;;;;;;6.30;5.20;;;20.80;99.90;;;;;;5090358;28;20242;-52
2022/09/13 04:51:20;;;;;;;7.40;4.53;;;20.80;99.90;;;;;;5086689;28;20189;-50
2022/09/13 04:53:52;;;;;;;8.43;4.18;;;20.90;99.90;;;;;;5065284;28;20187;-53
2022/09/13 04:56:18;;;;;;;7.53;3.55;;;20.90;99.90;;;;;;5080052;28;20186;-53
2022/09/13 04:58:44;;;;;;;7.50;3.20;;;20.90;99.90;;;;;;5090491;28;20245;-53
2022/09/13 05:01:10;;;;;;;5.47;2.95;;;20.80;99.90;;;;;;5066742;28;20259;-51
2022/09/13 05:03:37;;;;;;;5.53;2.70;;;20.80;99.90;;;;;;5096570;28;20322;-51
2022/09/13 05:06:04;;;;;;;6.47;2.90;;;20.80;99.90;;;;;;5077053;28;20769;-51
2022/09/13 05:08:30;;;;;;;5.70;2.88;;;20.80;99.90;;;;;;5095036;28;20174;-49
2022/09/13 05:10:56;;;;;;;7.72;3.28;;;20.80;99.90;;;;;;5084236;28;20181;-54
2022/09/13 05:13:22;;;;;;;7.90;3.60;;;20.80;99.90;;;;;;5115241;28;20232;-52
2022/09/13 05:15:47;;;;;;;6.85;3.63;;;20.80;99.90;;;;;;5060353;28;20281;-52
2022/09/13 05:18:13;;;;;;;10.27;3.88;;;20.80;99.90;;;;;;5088258;28;20280;-50
2022/09/13 05:20:39;;;;;;;10.13;3.95;;;20.80;99.90;;;;;;5078408;28;20239;-46
2022/09/13 05:23:04;;;;;;;6.25;3.60;;;20.80;99.90;;;;;;5058329;28;20181;-49
2022/09/13 05:25:30;;;;;;;11.77;3.90;;;20.80;99.90;;;;;;5089551;28;20685;-55
2022/09/13 05:27:57;;;;;;;10.35;4.30;;;20.80;99.90;;;;;;5077259;28;20269;-53
2022/09/13 05:30:22;;;;;;;9.98;3.92;;;20.80;99.90;;;;;;5076561;28;20214;-51
2022/09/13 05:32:48;;;;;;;7.20;3.72;;;20.80;99.90;;;;;;5092739;28;20225;-53
2022/09/13 05:35:14;;;;;;;9.45;3.70;;;20.80;99.90;;;;;;5069848;28;20189;-50
2022/09/13 05:37:40;;;;;;;10.85;3.60;;;20.80;99.90;;;;;;5095652;28;20227;-52
2022/09/13 05:40:06;;;;;;;9.73;3.97;;;20.80;99.90;;;;;;5095330;28;20645;-49
2022/09/13 05:42:32;;;;;;;13.80;4.10;;;20.80;99.90;;;;;;5071505;28;20618;-58
2022/09/13 05:44:57;;;;;;;8.23;2.88;;;20.80;99.90;;;;;;5081585;28;20252;-50
2022/09/13 05:47:23;;;;;;;9.23;2.85;;;20.80;99.90;;;;;;5093269;28;20182;-48
2022/09/13 05:49:49;;;;;;;8.52;2.92;;;20.80;99.90;;;;;;5075598;28;20189;-46
2022/09/13 05:52:14;;;;;;;8.60;2.70;;;20.80;99.90;;;;;;5058466;28;20210;-52
2022/09/13 05:54:40;;;;;;;7.82;2.50;;;20.80;99.90;;;;;;5064568;28;20545;-49
2022/09/13 05:57:06;;;;;;;7.57;2.60;;;20.80;99.90;;;;;;5092319;28;20217;-47
2022/09/13 05:59:31;;;;;;;7.97;2.10;;;20.80;99.90;;;;;;5088132;28;20629;-52
2022/09/13 06:01:57;;;;;;;12.15;2.60;;;20.80;99.90;;;;;;5070840;28;20190;-56
2022/09/13 06:04:23;;;;;;;8.68;2.60;;;20.80;99.90;;;;;;5062771;28;20189;-48
2022/09/13 06:06:49;;;;;;;9.48;2.20;;;20.80;99.90;;;;;;5074015;28;20178;-47
2022/09/13 06:09:15;;;;;;;5.25;2.05;;;20.80;99.90;;;;;;5089428;28;20518;-52
2022/09/13 06:11:40;;;;;;;11.63;2.33;;;20.80;99.90;;;;;;5089178;28;20234;-55
2022/09/13 06:14:07;;;;;;;7.70;2.05;;;20.80;99.90;;;;;;5065391;28;20227;-51
2022/09/13 06:16:33;;;;;;;5.57;2.22;;;20.80;99.90;;;;;;5082917;28;20175;-49
2022/09/13 06:18:59;;;;;;;9.00;2.50;;;20.80;99.90;;;;;;5076301;28;20190;-50
2022/09/13 06:21:24;;;;;;;8.98;2.53;;;20.80;99.90;;;;;;5073534;28;20239;-48
2022/09/13 06:23:52;;;;;;;8.90;2.42;;;20.80;99.90;;;;;;5074966;28;20256;-56
2022/09/13 06:26:20;;;;;;;4.03;2.40;;;20.90;99.90;;;;;;5076888;28;20174;-49
2022/09/13 06:28:47;;;;;;;9.93;2.80;;;20.90;99.90;;;;;;5084810;28;20177;-51
2022/09/13 06:31:15;;;;;;;7.10;2.28;;;20.90;99.90;;;;;;5106983;28;20174;-52
2022/09/13 06:33:42;;;;;;;12.43;3.47;;;20.90;99.90;;;;;;5071664;28;20270;-49
2022/09/13 06:36:17;;;;;;;5.57;2.45;;;20.90;99.90;;;;;;5075320;28;20226;-55
2022/09/13 06:38:44;;;;;;;8.48;2.50;;;21.00;99.90;;;;;;5072169;28;20202;-48
2022/09/13 06:41:17;;;;;;;4.97;2.08;;;21.00;99.90;;;;;;5078621;28;20538;-48
2022/09/13 06:43:43;;;;;;;7.75;1.88;;;21.00;99.90;;;;;;5054439;28;20179;-46
2022/09/13 06:46:11;;;;;;;7.07;2.10;;;21.10;99.90;;;;;;5061725;28;20186;-51
2022/09/13 06:48:39;;;;;;;8.60;2.30;;;21.10;99.90;;;;;;5073352;28;20186;-51
2022/09/13 06:51:14;;;;;;;6.95;2.40;;;21.10;99.90;;;;;;5072665;28;20248;-49
2022/09/13 06:53:41;;;;;;;9.30;2.17;;;21.20;99.90;;;;;;5056747;28;20632;-49
2022/09/13 06:56:10;;;;;;;5.43;2.13;;;21.30;99.90;;;;;;5074944;28;20255;-52
2022/09/13 06:58:37;;;;;;;7.78;2.80;;;21.30;99.90;;;;;;5081418;28;20202;-50
2022/09/13 07:01:14;;;;;;;7.30;2.58;;;21.40;99.90;;;;;;5075867;28;20686;-52
2022/09/13 07:03:49;;;;;;;7.47;2.22;;;21.40;99.90;;;;;;5063631;28;20196;-52
2022/09/13 07:06:23;;;;;;;9.13;2.20;;;21.40;99.90;;;;;;5075069;28;20181;-54
2022/09/13 07:08:51;;;;;;;8.27;2.30;;;21.40;99.90;;;;;;5056857;28;20182;-50
2022/09/13 07:11:18;;;;;;;7.15;2.42;;;21.50;99.90;;;;;;5069119;28;20211;-52
2022/09/13 07:13:52;;;;;;;8.18;3.35;;;21.50;99.90;;;;;;5062393;28;20182;-48
2022/09/13 07:16:20;;;;;;;5.40;2.60;;;21.50;99.90;;;;;;5074355;28;20218;-50
2022/09/13 07:18:51;;;;;;;7.45;3.17;;;21.50;99.90;;;;;;5072254;28;20206;-50
2022/09/13 07:21:17;;;;;;;9.98;3.95;;;21.50;99.90;;;;;;5096232;28;20181;-52
2022/09/13 07:23:43;;;;;;;7.88;3.30;;;21.50;99.90;;;;;;5078426;28;20320;-49
2022/09/13 07:26:09;;;;;;;10.60;3.55;;;21.50;99.90;;;;;;5075556;28;20534;-51
2022/09/13 07:28:37;;;;;;;7.55;3.47;;;21.60;99.90;;;;;;5058481;28;20290;-52
2022/09/13 07:31:09;;;;;;;8.48;3.60;;;21.60;99.90;;;;;;5078184;28;20177;-56
2022/09/13 07:33:36;;;;;;;6.65;3.50;;;21.60;99.90;;;;;;5091562;28;20178;-49
2022/09/13 07:36:05;;;;;;;6.68;3.40;;;21.60;99.90;;;;;;5092780;28;20253;-51
2022/09/13 07:38:49;;;;;;;9.20;4.43;;;21.60;99.90;;;;;;5073880;28;20234;-52
2022/09/13 07:41:19;;;;;;;8.68;3.15;;;21.50;99.90;;;;;;5073051;28;20244;-54
2022/09/13 07:43:45;;;;;;;5.45;2.35;;;21.50;99.90;;;;;;5083780;28;20186;-54
2022/09/13 07:46:16;;;;;;;7.32;2.17;;;21.40;99.90;;;;;;5091816;28;20287;-53
2022/09/13 07:48:44;;;;;;;8.40;2.28;;;21.40;99.90;;;;;;5090953;28;20247;-52
2022/09/13 07:51:11;;;;;;;3.80;1.98;;;21.40;99.90;;;;;;5078509;28;20190;-49
2022/09/13 07:53:38;;;;;;;7.57;2.38;;;21.40;99.90;;;;;;5077465;28;20175;-51
2022/09/13 07:56:04;;;;;;;5.57;1.95;;;21.50;99.90;;;;;;5066505;28;20918;-56
2022/09/13 07:58:32;;;;;;;5.55;1.67;;;21.50;99.90;;;;;;5059603;28;20214;-52
2022/09/13 08:01:11;;;;;;;8.77;1.90;;;21.60;99.90;;;;;;5057870;28;20644;-51
2022/09/13 08:03:38;;;;;;;9.27;2.47;;;21.60;99.90;;;;;;5068509;28;20556;-51
2022/09/13 08:06:05;;;;;;;8.13;1.60;;;21.60;99.90;;;;;;5071891;28;20182;-51
2022/09/13 08:08:32;;;;;;;5.05;1.50;;;21.60;99.90;;;;;;5081465;28;20273;-51
2022/09/13 08:10:58;;;;;;;5.75;1.75;;;21.60;99.90;;;;;;5099095;28;20183;-57
2022/09/13 08:13:25;;;;;;;5.57;1.60;;;21.60;99.90;;;;;;5054566;28;20178;-52
2022/09/13 08:15:50;;;;;;;7.90;2.13;;;21.70;99.90;;;;;;5072539;28;20797;-49
2022/09/13 08:18:17;;;;;;;6.30;1.52;;;21.70;99.90;;;;;;5070437;28;20202;-51
2022/09/13 08:20:43;;;;;;;4.53;1.50;;;21.70;99.90;;;;;;5064280;28;20235;-49
2022/09/13 08:23:10;;;;;;;11.00;1.73;;;21.80;99.90;;;;;;5058133;28;20189;-51
2022/09/13 08:25:37;;;;;;;10.45;1.60;;;21.80;99.90;;;;;;5073128;28;20159;-50
2022/09/13 08:28:14;;;;;;;5.75;1.70;;;21.80;99.90;;;;;;5072002;28;20181;-59
2022/09/13 08:30:42;;;;;;;8.80;1.92;;;21.80;99.90;;;;;;5073759;28;20550;-50
2022/09/13 08:33:10;;;;;;;4.40;1.80;;;21.80;99.90;;;;;;5076817;28;20188;-51
2022/09/13 08:35:36;;;;;;;6.88;1.77;;;21.80;99.90;;;;;;5091815;28;20186;-49
2022/09/13 08:38:03;;;;;;;3.67;1.80;;;21.90;99.90;;;;;;5090557;28;20267;-52
2022/09/13 08:40:47;;;;;;;3.40;1.55;;;21.90;99.90;;;;;;5075687;28;20263;-47
2022/09/13 08:43:48;;;;;;;3.92;1.52;;;21.90;99.90;;;;;;5076801;28;20283;-51
2022/09/13 08:46:27;;;;;;;8.20;1.80;;;22.00;99.90;;;;;;5060224;28;20650;-46
2022/09/13 08:49:03;;;;;;;6.72;1.60;;;22.00;99.90;;;;;;5080137;28;20317;-49
2022/09/13 08:51:46;;;;;;;5.57;1.80;;;22.00;99.90;;;;;;5073432;28;20166;-46
2022/09/13 08:54:15;;;;;;;3.47;1.42;;;22.00;99.90;;;;;;5087998;28;20182;-52
2022/09/13 08:56:46;;;;;;;8.52;1.95;;;22.00;99.90;;;;;;5096333;28;20173;-49
2022/09/13 08:59:28;;;;;;;6.45;1.70;;;22.00;99.90;;;;;;5088953;28;20183;-52
2022/09/13 09:01:57;;;;;;;6.28;1.83;;;22.00;99.90;;;;;;5076561;28;20167;-51
2022/09/13 09:04:26;;;;;;;6.80;1.55;;;22.10;99.90;;;;;;5087342;28;20192;-46
2022/09/13 09:07:14;;;;;;;7.80;2.00;;;22.20;99.90;;;;;;5095856;28;20239;-50
2022/09/13 09:09:56;;;;;;;6.82;1.92;;;22.20;99.90;;;;;;5093835;28;20174;-44
2022/09/13 09:12:40;;;;;;;6.32;1.75;;;22.20;99.90;;;;;;5076484;28;20636;-49
2022/09/13 09:15:22;;;;;;;7.63;1.70;;;22.20;99.90;;;;;;5075311;28;20185;-46
2022/09/13 09:17:56;;;;;;;6.40;1.75;;;22.20;99.90;;;;;;5083336;28;20217;-47
2022/09/13 09:20:59;;;;;;;7.53;1.90;;;22.20;99.90;;;;;;5095535;28;20618;-48
2022/09/13 09:23:35;;;;;;;5.25;1.60;;;22.30;99.90;;;;;;5023131;28;20656;-58
2022/09/13 09:26:14;;;;;;;9.00;1.50;;;22.40;99.90;;;;;;5075233;28;20186;-49
2022/09/13 09:28:40;;;;;;;12.52;1.58;;;22.40;99.90;;;;;;5082156;28;20200;-52
2022/09/13 09:31:21;;;;;;;10.45;2.33;;;22.40;99.90;;;;;;5075729;28;20185;-49
2022/09/13 09:34:08;;;;;;;8.05;1.42;;;22.40;99.90;;;;;;5056471;28;20181;-53
2022/09/13 09:37:06;;;;;;;5.10;2.00;;;22.40;99.90;;;;;;5108565;28;20304;-50
2022/09/13 09:39:37;;;;;;;9.73;2.00;;;22.50;99.90;;;;;;5047438;28;20657;-54
2022/09/13 09:42:12;;;;;;;5.93;1.52;;;22.50;99.90;;;;;;5074721;28;20171;-52
2022/09/13 09:44:39;;;;;;;4.68;1.38;;;22.60;99.60;;;;;;5046917;28;20639;-57
2022/09/13 09:47:17;;;;;;;5.50;1.20;;;22.60;99.40;;;;;;5074391;28;20191;-49
2022/09/13 09:50:08;;;;;;;3.88;1.13;;;22.70;98.90;;;;;;5039174;28;20184;-58
2022/09/13 09:52:58;;;;;;;4.05;1.35;;;22.70;99.00;;;;;;5080315;28;20638;-54
2022/09/13 09:55:27;;;;;;;5.53;1.80;;;22.80;98.70;;;;;;5076587;28;21878;-50
2022/09/13 09:57:57;;;;;;;14.40;2.80;;;22.90;98.60;;;;;;5075057;28;20234;-53
2022/09/13 10:00:28;;;;;;;7.95;1.77;;;22.90;98.30;;;;;;5077214;28;20207;-49
2022/09/13 10:03:00;;;;;;;4.88;1.45;;;23.00;98.10;;;;;;5097177;28;20169;-53
2022/09/13 10:05:26;;;;;;;2.42;0.95;;;23.10;97.80;;;;;;5081110;28;20270;-46
2022/09/13 10:08:01;;;;;;;6.50;1.42;;;23.20;97.40;;;;;;5074429;28;20189;-49
2022/09/13 10:10:42;;;;;;;5.38;1.50;;;23.20;96.60;;;;;;5080032;28;20588;-52
2022/09/13 10:13:16;;;;;;;5.38;1.42;;;23.20;96.30;;;;;;5068945;28;20190;-50
2022/09/13 10:15:59;;;;;;;8.57;1.45;;;23.20;95.80;;;;;;5074214;28;20171;-46
2022/09/13 10:18:26;;;;;;;7.35;1.58;;;23.10;95.50;;;;;;5079341;28;20193;-52
2022/09/13 10:21:17;;;;;;;6.35;1.40;;;23.10;95.60;;;;;;5061836;28;22013;-51
2022/09/13 10:23:45;;;;;;;4.45;1.13;;;23.00;95.60;;;;;;5088577;28;20170;-54
2022/09/13 10:26:17;;;;;;;5.05;1.10;;;23.00;95.80;;;;;;5106782;28;20652;-49
2022/09/13 10:28:59;;;;;;;5.88;1.50;;;23.10;95.60;;;;;;5089967;28;20178;-48
2022/09/13 10:31:38;;;;;;;8.07;2.55;;;23.10;95.10;;;;;;5092055;28;20606;-50
2022/09/13 10:34:19;;;;;;;7.63;1.60;;;23.00;94.40;;;;;;5081786;28;20288;-48
2022/09/13 10:36:58;;;;;;;5.88;1.50;;;22.90;94.20;;;;;;5072470;28;20368;-60
2022/09/13 10:39:26;;;;;;;6.43;1.60;;;22.90;94.60;;;;;;5092511;28;20182;-47
2022/09/13 10:41:57;;;;;;;6.90;2.05;;;23.00;94.50;;;;;;5075081;28;20657;-46
2022/09/13 10:44:39;;;;;;;13.10;2.03;;;23.00;94.40;;;;;;5078502;28;20179;-49
2022/09/13 10:47:12;;;;;;;11.45;2.45;;;23.10;94.30;;;;;;5073584;28;20173;-56
2022/09/13 10:49:46;;;;;;;9.80;1.60;;;23.20;94.40;;;;;;5087843;28;20170;-49
2022/09/13 10:52:29;;;;;;;8.50;1.88;;;23.30;94.30;;;;;;5093443;28;20266;-50
2022/09/13 10:55:14;;;;;;;4.82;1.75;;;23.30;92.90;;;;;;5073461;28;20193;-55
2022/09/13 10:57:40;;;;;;;9.63;1.88;;;23.30;93.10;;;;;;5071225;28;20625;-50
2022/09/13 11:00:18;;;;;;;4.82;1.42;;;23.30;93.00;;;;;;5077594;28;20275;-47
2022/09/13 11:02:54;;;;;;;5.32;1.38;;;23.30;92.60;;;;;;5088418;28;20265;-51
2022/09/13 11:05:52;;;;;;;7.38;1.85;;;23.40;92.00;;;;;;5073063;28;20178;-52
2022/09/13 11:08:46;;;;;;;11.95;2.08;;;23.50;91.80;;;;;;5076108;28;20197;-48
2022/09/13 11:11:25;;;;;;;5.65;1.48;;;23.60;91.60;;;;;;5102086;28;20166;-53
2022/09/13 11:14:15;;;;;;;4.68;1.38;;;23.70;91.00;;;;;;5091291;28;20179;-50
2022/09/13 11:16:55;;;;;;;5.47;1.50;;;23.70;91.00;;;;;;5075207;28;20227;-47
2022/09/13 11:19:48;;;;;;;5.53;1.40;;;23.80;89.90;;;;;;5086345;28;20177;-51
2022/09/13 11:22:17;;;;;;;9.05;1.63;;;23.90;90.30;;;;;;5056363;28;20193;-46
2022/09/13 11:24:50;;;;;;;4.57;1.60;;;24.00;90.60;;;;;;5088935;28;20178;-48
2022/09/13 11:27:34;;;;;;;8.15;1.90;;;24.10;90.00;;;;;;5091795;28;20175;-51
2022/09/13 11:30:17;;;;;;;6.47;1.60;;;24.10;88.60;;;;;;5081982;28;20170;-51
2022/09/13 11:33:02;;;;;;;4.50;1.33;;;24.10;88.70;;;;;;5065126;28;20219;-52
2022/09/13 11:35:49;;;;;;;7.35;1.65;;;24.20;86.30;;;;;;5084563;28;20243;-53
2022/09/13 11:38:33;;;;;;;3.88;1.20;;;24.20;83.90;;;;;;5096445;28;20194;-48
2022/09/13 11:41:34;;;;;;;8.70;1.73;;;24.40;86.60;;;;;;5084235;28;20175;-49
2022/09/13 11:44:25;;;;;;;4.75;1.30;;;24.60;87.20;;;;;;5054735;28;20185;-49
2022/09/13 11:46:51;;;;;;;6.40;1.13;;;24.70;83.70;;;;;;5073584;28;20210;-49
2022/09/13 11:49:35;;;;;;;4.82;1.30;;;24.80;83.40;;;;;;5085141;28;20209;-52
2022/09/13 11:52:05;;;;;;;5.15;1.10;;;24.90;78.80;;;;;;5100055;28;20225;-52
2022/09/13 11:54:49;;;;;;;4.85;0.90;;;24.90;79.40;;;;;;5072200;28;20174;-61
2022/09/13 11:57:21;;;;;;;8.50;1.30;;;25.00;76.50;;;;;;5073138;28;20202;-53
2022/09/13 11:59:58;;;;;;;3.50;0.90;;;25.00;77.20;;;;;;5089086;28;20182;-54
2022/09/13 12:02:39;;;;;;;9.25;1.15;;;25.00;79.70;;;;;;5082455;28;20222;-52
2022/09/13 12:05:15;;;;;;;4.05;1.25;;;25.10;79.40;;;;;;5072935;28;20651;-50
2022/09/13 12:07:47;;;;;;;6.32;1.50;;;25.00;78.20;;;;;;5076523;28;20282;-50
2022/09/13 12:10:19;;;;;;;5.53;1.58;;;25.00;77.80;;;;;;5059694;28;20257;-46
2022/09/13 12:12:50;;;;;;;6.50;1.40;;;25.00;77.20;;;;;;5079118;28;20193;-49
2022/09/13 12:15:41;;;;;;;4.65;1.10;;;25.00;77.70;;;;;;5076156;28;20182;-46
2022/09/13 12:18:24;;;;;;;5.00;1.00;;;25.00;78.10;;;;;;5078663;28;20692;-50
2022/09/13 12:21:22;;;;;;;4.47;1.20;;;25.00;78.70;;;;;;5061363;28;20219;-48
2022/09/13 12:24:03;;;;;;;5.18;1.23;;;25.00;76.40;;;;;;5077198;28;21715;-59
2022/09/13 12:26:51;;;;;;;5.10;1.30;;;25.00;77.90;;;;;;5083647;28;20630;-46
2022/09/13 12:29:31;;;;;;;7.03;1.10;;;25.00;78.40;;;;;;5072387;28;20210;-48
2022/09/13 12:32:01;;;;;;;5.80;1.15;;;25.10;77.10;;;;;;5075914;28;20182;-47
2022/09/13 12:34:55;;;;;;;4.28;0.93;;;25.20;76.90;;;;;;5085709;28;20638;-46
2022/09/13 12:37:34;;;;;;;3.85;1.05;;;25.20;74.30;;;;;;5050288;28;20599;-48
2022/09/13 12:40:27;;;;;;;6.68;1.00;;;25.30;75.60;;;;;;5074768;28;20178;-49
2022/09/13 12:43:37;;;;;;;3.17;0.90;;;25.40;75.70;;;;;;5075030;28;20162;-50
2022/09/13 12:46:40;;;;;;;5.38;0.82;;;25.60;73.30;;;;;;5106412;28;20177;-50
2022/09/13 12:49:09;;;;;;;3.28;0.98;;;25.80;73.80;;;;;;5082083;28;20173;-48
2022/09/13 12:52:02;;;;;;;5.05;0.95;;;25.80;72.20;;;;;;5073910;28;20182;-51
2022/09/13 12:54:50;;;;;;;4.63;1.20;;;25.90;73.30;;;;;;5075760;28;20271;-50
2022/09/13 12:57:43;;;;;;;6.55;1.25;;;26.00;74.00;;;;;;5066532;28;20221;-49
2022/09/13 13:00:11;;;;;;;4.40;1.38;;;26.20;73.80;;;;;;5076944;28;20174;-48
2022/09/13 13:03:07;;;;;;;5.85;1.40;;;26.20;73.40;;;;;;5074587;28;20592;-57
2022/09/13 13:05:37;;;;;;;8.40;1.15;;;26.30;72.50;;;;;;5089075;28;20184;-45
2022/09/13 13:08:26;;;;;;;3.92;1.02;;;26.40;72.60;;;;;;5094248;28;20186;-46
2022/09/13 13:11:13;;;;;;;6.90;1.23;;;26.40;68.00;;;;;;5095420;28;20173;-47
2022/09/13 13:14:01;;;;;;;4.93;1.10;;;26.50;70.70;;;;;;5098605;28;20175;-54
2022/09/13 13:16:35;;;;;;;3.78;1.05;;;26.50;67.70;;;;;;5074765;28;20208;-46
2022/09/13 13:19:03;;;;;;;3.97;0.98;;;26.50;68.40;;;;;;5084378;28;20224;-49
2022/09/13 13:21:38;;;;;;;7.45;1.13;;;26.50;68.40;;;;;;5057279;28;20625;-47